createdAt,value
2024-01-29T00:00:16.811Z,21.9
2024-01-29T00:06:15.193Z,24.3
2024-01-29T00:12:12.977Z,26.7
2024-01-29T00:18:07.778Z,24.3
2024-01-29T00:24:02.496Z,23.1
2024-01-29T00:29:41.040Z,22.3
2024-01-29T00:35:41.950Z,23.2
2024-01-29T00:41:36.831Z,26.3
2024-01-29T00:47:30.581Z,24.8
2024-01-29T00:53:17.889Z,23.6
2024-01-29T00:59:12.824Z,22.4
2024-01-29T01:05:14.345Z,21.9
2024-01-29T01:11:08.259Z,25.6
2024-01-29T01:16:46.843Z,25.9
2024-01-29T01:22:42.695Z,23.9
2024-01-29T01:28:36.880Z,22.8
2024-01-29T01:34:31.826Z,22.1
2024-01-29T01:40:26.303Z,25
2024-01-29T01:46:23.465Z,22.4
2024-01-29T01:52:25.830Z,25.7
2024-01-29T01:58:20.050Z,26.4
2024-01-29T02:04:18.564Z,23.9
2024-01-29T02:10:14.107Z,22.7
2024-01-29T02:16:08.293Z,22.1
2024-01-29T02:22:03.297Z,25.3
2024-01-29T02:27:57.256Z,27
2024-01-29T02:33:53.994Z,24.1
2024-01-29T02:39:48.516Z,24.6
2024-01-29T02:45:27.421Z,26.9
2024-01-29T02:51:23.745Z,24.4
2024-01-29T02:57:17.640Z,23.2
2024-01-29T03:03:12.569Z,22.3
2024-01-29T03:09:12.131Z,24.1
2024-01-29T03:15:07.233Z,26.5
2024-01-29T03:20:48.029Z,25.1
2024-01-29T03:26:45.509Z,23.6
2024-01-29T03:32:39.434Z,26
2024-01-29T03:38:34.005Z,25.9
2024-01-29T03:44:12.937Z,23.9
2024-01-29T03:50:07.834Z,24.9
2024-01-29T03:56:05.042Z,27.1
2024-01-29T04:02:01.967Z,24.3
2024-01-29T04:07:43.160Z,23.6
2024-01-29T04:13:37.009Z,26.3
2024-01-29T04:19:37.460Z,22.1
2024-01-29T04:25:34.436Z,25.4
2024-01-29T04:31:13.711Z,26.6
2024-01-29T04:37:09.161Z,24.1
2024-01-29T04:43:04.097Z,24.2
2024-01-29T04:48:43.268Z,26.7
2024-01-29T04:54:23.501Z,24.8
2024-01-29T04:59:47.327Z,23.6
2024-01-29T05:05:31.285Z,22.5
2024-01-29T05:11:11.560Z,22.2
2024-01-29T05:16:34.385Z,25.6
2024-01-29T05:22:16.138Z,27.3
2024-01-29T05:28:11.912Z,24.4
2024-01-29T05:34:00.548Z,23.6
2024-01-29T05:39:39.473Z,26.4
2024-01-29T05:45:17.898Z,25.3
2024-01-29T05:50:57.785Z,23.9
2024-01-29T05:56:51.981Z,25.8
2024-01-29T06:02:31.211Z,27.3
2024-01-29T06:08:13.862Z,24.5
2024-01-29T06:13:55.131Z,24.3
2024-01-29T06:19:38.946Z,26.8
2024-01-29T06:25:55.239Z,25.1
2024-01-29T06:31:37.158Z,23.8
2024-01-29T06:37:34.773Z,26.2
2024-01-29T06:43:29.772Z,23.6
2024-01-29T06:49:25.760Z,24.6
2024-01-29T06:55:21.122Z,27
2024-01-29T07:01:15.228Z,24.7
2024-01-29T07:07:15.684Z,23.5
2024-01-29T07:13:10.635Z,22.4
2024-01-29T07:19:05.153Z,24.2
2024-01-29T07:25:01.096Z,26.8
2024-01-29T07:30:41.900Z,25.6
2024-01-29T07:36:37.524Z,23.9
2024-01-29T07:42:34.550Z,26.1
2024-01-29T07:48:29.533Z,26.9
2024-01-29T07:54:26.195Z,24.3
2024-01-29T08:00:21.365Z,25.1
2024-01-29T08:06:18.558Z,27.4
2024-01-29T08:12:13.999Z,24.9
2024-01-29T08:18:09.196Z,23.4
2024-01-29T08:24:09.916Z,26.8
2024-01-29T08:30:04.309Z,25.4
2024-01-29T08:36:01.679Z,23.9
2024-01-29T08:41:56.679Z,26.2
2024-01-29T08:47:53.269Z,26.6
2024-01-29T08:53:52.021Z,23.9
2024-01-29T08:59:49.105Z,25.1
2024-01-29T09:05:44.942Z,27.3
2024-01-29T09:11:51.372Z,24.6
2024-01-29T09:17:46.499Z,24.6
2024-01-29T09:23:26.271Z,26.8
2024-01-29T09:29:21.814Z,24.4
2024-01-29T09:35:31.334Z,23.3
2024-01-29T09:41:25.222Z,26.8
2024-01-29T09:47:22.225Z,25.3
2024-01-29T09:52:49.766Z,23.4
2024-01-29T09:58:46.954Z,25.6
2024-01-29T10:04:44.572Z,26.7
2024-01-29T10:10:24.622Z,23.8
2024-01-29T10:16:18.910Z,24.8
2024-01-29T10:22:14.665Z,27.7
2024-01-29T10:27:54.594Z,24.6
2024-01-29T10:33:19.309Z,23.8
2024-01-29T10:38:30.321Z,27.1
2024-01-29T10:44:31.799Z,25.7
2024-01-29T10:50:11.531Z,23.6
2024-01-29T10:55:52.490Z,26.1
2024-01-29T11:01:33.140Z,24.3
2024-01-29T11:07:23.497Z,24.8
2024-01-29T11:13:05.127Z,27.3
2024-01-29T11:18:45.620Z,25.1
2024-01-29T11:24:47.743Z,23.6
2024-01-29T11:30:26.896Z,22.6
2024-01-29T11:36:37.856Z,22.2
2024-01-29T11:42:32.479Z,21.8
2024-01-29T11:48:30.544Z,24.6
2024-01-29T11:54:38.965Z,25.3
2024-01-29T12:00:21.046Z,23.5
2024-01-29T12:06:01.015Z,22.6
2024-01-29T12:11:59.748Z,21.9
2024-01-29T12:17:55.784Z,24.6
2024-01-29T12:23:52.554Z,24.9
2024-01-29T12:29:48.273Z,23.2
2024-01-29T12:35:30.444Z,22.2
2024-01-29T12:41:27.686Z,21.6
2024-01-29T12:47:21.953Z,24.6
2024-01-29T12:53:18.296Z,24.9
2024-01-29T12:58:57.461Z,23.2
2024-01-29T13:04:43.505Z,24.6
2024-01-29T13:10:43.356Z,24.9
2024-01-29T13:16:37.934Z,23.5
2024-01-29T13:22:33.549Z,25.8
2024-01-29T13:28:15.041Z,24.6
2024-01-29T13:34:13.158Z,23.3
2024-01-29T13:39:53.349Z,25.9
2024-01-29T13:45:52.079Z,24.4
2024-01-29T13:51:48.214Z,23.1
2024-01-29T13:57:44.599Z,26.3
2024-01-29T14:03:39.997Z,23.9
2024-01-29T14:09:37.152Z,22.9
2024-01-29T14:15:46.725Z,22.4
2024-01-29T14:21:43.871Z,22
2024-01-29T14:27:38.613Z,21.8
2024-01-29T14:33:37.455Z,21.4
2024-01-29T14:39:35.241Z,21.3
2024-01-29T14:45:31.313Z,20.9
2024-01-29T14:51:30.770Z,20.5
2024-01-29T14:57:24.974Z,26.4
2024-01-29T15:03:22.525Z,33.2
2024-01-29T15:09:20.721Z,34.6
2024-01-29T15:15:15.601Z,32.9
2024-01-29T15:21:13.654Z,34.9
2024-01-29T15:27:11.243Z,35.5
2024-01-29T15:33:06.315Z,34.7
2024-01-29T15:39:01.406Z,33.8
2024-01-29T15:44:57.912Z,32.9
2024-01-29T15:50:58.472Z,35.1
2024-01-29T15:56:55.656Z,31.8
2024-01-29T16:02:50.838Z,36.7
2024-01-29T16:08:45.688Z,33.2
2024-01-29T16:14:40.080Z,35.9
2024-01-29T16:20:39.505Z,36.8
2024-01-29T16:26:33.571Z,35.8
2024-01-29T16:32:28.963Z,33.8
2024-01-29T16:38:25.652Z,32.4
2024-01-29T16:44:23.348Z,36.1
2024-01-29T16:50:19.597Z,32.4
2024-01-29T16:56:14.679Z,33.7
2024-01-29T17:02:10.908Z,33.6
2024-01-29T17:08:06.989Z,32.3
2024-01-29T17:14:04.598Z,31.4
2024-01-29T17:20:03.855Z,30.8
2024-01-29T17:25:58.463Z,30.2
2024-01-29T17:31:52.568Z,30.6
2024-01-29T17:37:49.615Z,33.6
2024-01-29T17:43:44.934Z,32.8
2024-01-29T17:49:40.841Z,34.4
2024-01-29T17:55:38.654Z,36.1
2024-01-29T18:01:33.731Z,32.8
2024-01-29T18:07:29.246Z,34.1
2024-01-29T18:13:07.797Z,34.8
2024-01-29T18:18:34.233Z,34.9
2024-01-29T18:24:13.812Z,34.1
2024-01-29T18:30:10.460Z,34
2024-01-29T18:36:05.528Z,34.5
2024-01-29T18:41:59.992Z,37.3
2024-01-29T18:47:57.594Z,34.3
2024-01-29T18:53:52.659Z,34.3
2024-01-29T18:59:47.673Z,36
2024-01-29T19:05:47.004Z,33.6
2024-01-29T19:11:45.191Z,38
2024-01-29T19:17:43.066Z,34.3
2024-01-29T19:23:23.023Z,35.8
2024-01-29T19:29:01.722Z,34.1
2024-01-29T19:34:41.601Z,36.1
2024-01-29T19:40:37.472Z,33.3
2024-01-29T19:46:31.825Z,33.9
2024-01-29T19:52:29.548Z,33.8
2024-01-29T19:58:23.959Z,32.5
2024-01-29T20:04:19.592Z,33.3
2024-01-29T20:10:16.425Z,32.6
2024-01-29T20:16:11.471Z,31.1
2024-01-29T20:22:07.724Z,29.7
2024-01-29T20:28:02.860Z,28.6
2024-01-29T20:39:55.246Z,27
2024-01-29T20:45:53.069Z,26.4
2024-01-29T20:51:50.196Z,25.9
2024-01-29T20:57:56.450Z,25.5
2024-01-29T21:03:51.570Z,25.1
2024-01-29T21:09:32.503Z,24.8
2024-01-29T21:15:29.957Z,24.6
2024-01-29T21:21:25.192Z,23.9
2024-01-29T21:27:19.763Z,23.5
2024-01-29T21:33:16.648Z,22.8
2024-01-29T21:38:55.626Z,22.3
2024-01-29T21:44:49.903Z,21.9
2024-01-29T21:50:45.442Z,21.7
2024-01-29T21:56:40.156Z,21.4
2024-01-29T22:02:37.672Z,22.1
2024-01-29T22:08:16.814Z,24.3
2024-01-29T22:13:56.336Z,26.1
2024-01-29T22:19:51.048Z,25.4
2024-01-29T22:25:30.783Z,23.8
2024-01-29T22:31:28.048Z,22.8
2024-01-29T22:37:07.462Z,22.1
2024-01-29T22:43:02.096Z,24.9
2024-01-29T22:48:41.126Z,26.8
2024-01-29T22:54:38.045Z,24.4
2024-01-29T23:00:16.785Z,23.2
2024-01-29T23:06:14.570Z,22.3
2024-01-29T23:12:09.103Z,23.1
2024-01-29T23:18:02.838Z,25.8
2024-01-29T23:23:45.098Z,25.8
2024-01-29T23:29:39.021Z,23.8
2024-01-29T23:35:34.351Z,22.6
2024-01-29T23:41:28.130Z,21.9
2024-01-29T23:47:21.963Z,24.7
2024-01-29T23:52:45.861Z,26.3
2024-01-29T23:58:25.180Z,25.1
